Trivoli, Illinois
Current Conditions -  °F | °C
As of 6:54 PM on Sunday 21 Dec 2014 (Local Time) from KPIA Reporting Station
Overcast Overcast  
Wind Chill: 30°   Ceiling: 3900
Heat Index: 38°   Visibility: 8mi
Dew Point: 30°   Wind: 12mph
Humidity: 73%   Direction: 150°SSE
Pressure: 30.02"   Gusts: NA
Location:  40.69°N, 89.89°W
Report Text: KPIA 220054Z AUTO 15010KT 8SM OVC039 03/M01 A3002 RMK AO2 SLP170 T00331011 TSNO
Loading
Personal Weather Stations






























Interactive Weather Map New forecast layout! Learn more

10-Day Weather Forecast

Advertisements
Track Severe Weather on mobile